createdAt,value
2023-03-28T00:02:16.563Z,7.90
2023-03-28T00:07:20.655Z,9.98
2023-03-28T00:12:23.488Z,13.27
2023-03-28T00:17:25.634Z,9.55
2023-03-28T00:22:30.503Z,11.75
2023-03-28T00:27:33.526Z,6.60
2023-03-28T00:32:36.151Z,9.45
2023-03-28T00:37:38.208Z,12.10
2023-03-28T00:42:43.341Z,9.93
2023-03-28T00:47:51.661Z,13.80
2023-03-28T00:53:14.156Z,10.50
2023-03-28T00:58:26.615Z,8.75
2023-03-28T01:03:34.996Z,12.38
2023-03-28T01:08:43.777Z,10.70
2023-03-28T01:13:49.244Z,11.55
2023-03-28T01:18:52.705Z,12.02
2023-03-28T01:24:16.789Z,10.77
2023-03-28T01:29:34.034Z,9.90
2023-03-28T01:34:56.894Z,12.45
2023-03-28T01:40:21.222Z,11.45
2023-03-28T01:45:44.329Z,13.93
2023-03-28T01:51:00.225Z,13.68
2023-03-28T01:56:04.879Z,9.75
2023-03-28T02:01:23.000Z,11.85
2023-03-28T02:06:27.205Z,9.30
2023-03-28T02:11:31.853Z,10.02
2023-03-28T02:17:04.543Z,12.80
2023-03-28T02:22:22.786Z,7.35
2023-03-28T02:27:56.712Z,13.18
2023-03-28T02:33:33.198Z,7.47
2023-03-28T02:38:43.375Z,9.63
2023-03-28T02:44:08.989Z,9.88
2023-03-28T02:49:43.831Z,8.32
2023-03-28T02:55:01.374Z,12.60
2023-03-28T03:00:20.295Z,11.68
2023-03-28T03:05:22.401Z,8.35
2023-03-28T03:10:24.714Z,8.93
2023-03-28T03:15:30.651Z,12.35
2023-03-28T03:20:33.802Z,8.65
2023-03-28T03:25:37.708Z,12.07
2023-03-28T03:30:57.691Z,14.82
2023-03-28T03:36:18.857Z,11.02
2023-03-28T03:41:21.404Z,11.63
2023-03-28T03:46:24.345Z,13.25
2023-03-28T03:51:28.981Z,13.52
2023-03-28T03:56:32.980Z,10.15
2023-03-28T04:01:39.310Z,14.10
2023-03-28T04:07:02.376Z,12.02
2023-03-28T04:12:06.110Z,9.50
2023-03-28T04:17:21.293Z,10.63
2023-03-28T04:22:29.799Z,18.38
2023-03-28T04:27:32.472Z,15.18
2023-03-28T04:32:36.161Z,14.82
2023-03-28T04:37:47.276Z,21.65
2023-03-28T04:42:49.477Z,17.20
2023-03-28T04:47:55.500Z,13.10
2023-03-28T04:52:58.425Z,18.10
2023-03-28T04:58:01.095Z,15.20
2023-03-28T05:03:04.957Z,19.75
2023-03-28T05:08:15.369Z,13.40
2023-03-28T05:13:18.227Z,17.38
2023-03-28T05:18:33.482Z,18.95
2023-03-28T05:23:36.125Z,20.92
2023-03-28T05:28:46.563Z,20.65
2023-03-28T05:33:50.399Z,21.73
2023-03-28T05:39:05.057Z,16.95
2023-03-28T05:44:08.106Z,21.17
2023-03-28T05:49:30.038Z,18.73
2023-03-28T05:54:32.218Z,17.80
2023-03-28T05:59:34.416Z,19.52
2023-03-28T06:04:36.557Z,23.95
2023-03-28T06:09:40.352Z,21.25
2023-03-28T06:14:44.253Z,21.05
2023-03-28T06:19:57.582Z,22.90
2023-03-28T06:24:59.820Z,22.15
2023-03-28T06:30:05.672Z,21.20
2023-03-28T06:35:15.653Z,25.98
2023-03-28T06:40:17.974Z,25.73
2023-03-28T06:45:20.197Z,28.52
2023-03-28T06:50:31.960Z,25.48
2023-03-28T06:55:43.310Z,26.88
2023-03-28T07:00:45.990Z,23.20
2023-03-28T07:06:12.563Z,24.48
2023-03-28T07:11:14.960Z,26.08
2023-03-28T07:16:20.881Z,21.98
2023-03-28T07:21:24.361Z,25.73
2023-03-28T07:26:31.271Z,26.55
2023-03-28T07:31:33.524Z,22.17
2023-03-28T07:36:35.941Z,24.83
2023-03-28T07:41:46.277Z,20.27
2023-03-28T07:46:48.393Z,17.80
2023-03-28T07:51:52.554Z,18.48
2023-03-28T07:56:54.988Z,16.50
2023-03-28T08:02:16.128Z,17.15
2023-03-28T08:07:18.847Z,15.45
2023-03-28T08:12:21.620Z,16.70
2023-03-28T08:17:23.859Z,13.80
2023-03-28T08:22:27.821Z,14.35
2023-03-28T08:27:41.393Z,15.57
2023-03-28T08:32:49.115Z,14.90
2023-03-28T08:37:52.199Z,14.30
2023-03-28T08:43:26.629Z,13.88
2023-03-28T08:48:39.660Z,14.45
2023-03-28T08:53:46.016Z,11.70
2023-03-28T08:59:15.978Z,11.55
2023-03-28T09:04:28.244Z,17.20
2023-03-28T09:10:13.959Z,14.20
2023-03-28T09:16:21.261Z,12.57
2023-03-28T09:21:51.930Z,12.25
2023-03-28T09:27:14.144Z,10.88
2023-03-28T09:32:27.951Z,13.27
2023-03-28T09:37:41.494Z,12.90
2023-03-28T09:42:49.909Z,11.05
2023-03-28T09:47:52.432Z,11.50
2023-03-28T09:52:58.907Z,9.13
2023-03-28T09:58:04.256Z,12.63
2023-03-28T10:03:35.718Z,12.07
2023-03-28T10:08:42.681Z,10.60
2023-03-28T10:13:59.331Z,11.25
2023-03-28T10:19:02.153Z,12.10
2023-03-28T10:24:21.993Z,10.57
2023-03-28T10:29:36.975Z,8.52
2023-03-28T10:34:39.569Z,10.00
2023-03-28T10:40:25.200Z,7.55
2023-03-28T10:45:54.180Z,7.57
2023-03-28T10:51:19.440Z,8.20
2023-03-28T10:56:33.659Z,4.35
2023-03-28T11:01:57.671Z,8.25
2023-03-28T11:07:22.767Z,7.83
2023-03-28T11:13:22.325Z,7.32
2023-03-28T11:18:34.117Z,8.57
2023-03-28T11:24:19.027Z,11.52
2023-03-28T11:29:46.685Z,7.38
2023-03-28T11:35:13.030Z,10.20
2023-03-28T11:40:56.597Z,7.43
2023-03-28T11:46:21.583Z,7.28
2023-03-28T11:51:34.156Z,6.13
2023-03-28T11:57:01.076Z,10.75
2023-03-28T12:02:39.932Z,10.15
2023-03-28T12:07:59.138Z,11.02
2023-03-28T12:13:10.348Z,7.50
2023-03-28T12:18:41.234Z,9.52
2023-03-28T12:23:51.858Z,10.68
2023-03-28T12:29:20.501Z,8.30
2023-03-28T12:34:37.184Z,4.97
2023-03-28T12:40:12.953Z,6.10
2023-03-28T12:45:28.168Z,7.38
2023-03-28T12:50:37.044Z,8.27
2023-03-28T12:55:46.072Z,6.38
2023-03-28T13:01:08.854Z,6.72
2023-03-28T13:06:29.151Z,8.80
2023-03-28T13:12:07.540Z,12.07
2023-03-28T13:17:39.132Z,8.45
2023-03-28T13:22:58.126Z,7.97
2023-03-28T13:28:34.223Z,6.60
2023-03-28T13:33:42.892Z,6.55
2023-03-28T13:39:10.915Z,11.68
2023-03-28T13:44:22.625Z,8.02
2023-03-28T13:49:44.834Z,10.27
2023-03-28T13:54:53.967Z,7.65
2023-03-28T13:59:59.646Z,6.57
2023-03-28T14:05:13.698Z,10.13
2023-03-28T14:10:33.877Z,9.25
2023-03-28T14:15:41.794Z,10.02
2023-03-28T14:20:46.302Z,8.88
2023-03-28T14:25:48.955Z,9.60
2023-03-28T14:30:51.039Z,7.57
2023-03-28T14:36:01.582Z,8.45
2023-03-28T14:41:13.655Z,10.70
2023-03-28T14:46:17.072Z,7.18
2023-03-28T14:51:21.602Z,10.07
2023-03-28T14:56:28.233Z,11.32
2023-03-28T15:01:33.946Z,7.18
2023-03-28T15:06:36.800Z,7.38
2023-03-28T15:11:43.426Z,9.70
2023-03-28T15:16:46.875Z,8.90
2023-03-28T15:22:02.425Z,12.65
2023-03-28T15:27:07.413Z,9.18
2023-03-28T15:32:16.921Z,8.35
2023-03-28T15:37:21.682Z,7.07
2023-03-28T15:42:34.585Z,9.88
2023-03-28T15:47:37.196Z,8.90
2023-03-28T15:52:42.446Z,6.85
2023-03-28T15:57:47.330Z,10.70
2023-03-28T16:02:49.446Z,9.48
2023-03-28T16:07:51.580Z,7.95
2023-03-28T16:12:53.637Z,17.08
2023-03-28T16:18:14.165Z,8.98
2023-03-28T16:23:24.440Z,9.87
2023-03-28T16:28:27.110Z,12.90
2023-03-28T16:33:29.384Z,9.48
2023-03-28T16:38:31.439Z,11.80
2023-03-28T16:43:33.563Z,9.65
2023-03-28T16:48:36.449Z,12.05
2023-03-28T16:53:39.703Z,9.43
2023-03-28T16:58:42.683Z,10.43
2023-03-28T17:03:48.873Z,9.43
2023-03-28T17:08:53.201Z,9.13
2023-03-28T17:13:55.540Z,13.95
2023-03-28T17:18:57.865Z,11.68
2023-03-28T17:23:59.864Z,10.73
2023-03-28T17:29:05.408Z,11.07
2023-03-28T17:34:09.776Z,15.63
2023-03-28T17:39:12.432Z,11.02
2023-03-28T17:44:14.695Z,8.73
2023-03-28T17:49:18.346Z,9.75
2023-03-28T17:54:20.584Z,10.98
2023-03-28T17:59:23.415Z,10.98
2023-03-28T18:04:25.829Z,9.15
2023-03-28T18:09:50.760Z,10.00
2023-03-28T18:14:52.816Z,7.22
2023-03-28T18:19:55.372Z,8.25
2023-03-28T18:24:57.690Z,7.22
2023-03-28T18:30:04.811Z,8.32
2023-03-28T18:35:07.406Z,10.50
2023-03-28T18:40:11.168Z,8.57
2023-03-28T18:45:13.561Z,9.00
2023-03-28T18:50:15.900Z,9.45
2023-03-28T18:55:18.708Z,6.38
2023-03-28T19:00:21.664Z,5.45
2023-03-28T19:05:24.505Z,6.70
2023-03-28T19:10:27.046Z,6.78
2023-03-28T19:15:29.158Z,5.78
2023-03-28T19:20:31.641Z,8.77
2023-03-28T19:25:33.717Z,11.43
2023-03-28T19:30:38.865Z,6.25
2023-03-28T19:35:42.269Z,6.88
2023-03-28T19:40:44.402Z,8.45
2023-03-28T19:45:46.628Z,8.75
2023-03-28T19:50:50.239Z,7.35
2023-03-28T19:55:54.035Z,6.28
2023-03-28T20:00:56.876Z,5.32
2023-03-28T20:06:04.741Z,6.50
2023-03-28T20:11:11.905Z,7.20
2023-03-28T20:16:14.734Z,8.27
2023-03-28T20:21:17.015Z,6.47
2023-03-28T20:26:21.968Z,6.70
2023-03-28T20:31:24.113Z,5.78
2023-03-28T20:36:27.260Z,6.10
2023-03-28T20:41:30.011Z,5.47
2023-03-28T20:46:34.336Z,6.60
2023-03-28T20:51:39.257Z,9.20
2023-03-28T20:56:42.585Z,5.88
2023-03-28T21:01:47.728Z,7.10
2023-03-28T21:06:49.985Z,8.30
2023-03-28T21:11:52.746Z,8.35
2023-03-28T21:16:57.776Z,9.55
2023-03-28T21:22:00.928Z,5.95
2023-03-28T21:27:03.348Z,6.53
2023-03-28T21:32:06.054Z,7.05
2023-03-28T21:37:08.044Z,8.43
2023-03-28T21:42:10.141Z,6.75
2023-03-28T21:47:13.073Z,4.65
2023-03-28T21:52:15.487Z,6.07
2023-03-28T21:57:17.656Z,6.05
2023-03-28T22:02:19.760Z,10.95
2023-03-28T22:07:21.797Z,7.50
2023-03-28T22:12:23.782Z,7.85
2023-03-28T22:17:26.515Z,7.30
2023-03-28T22:22:29.705Z,11.63
2023-03-28T22:27:31.716Z,8.43
2023-03-28T22:32:34.207Z,9.82
2023-03-28T22:37:36.260Z,13.70
2023-03-28T22:42:38.662Z,13.95
2023-03-28T22:47:40.845Z,14.18
2023-03-28T22:52:42.953Z,9.50
2023-03-28T22:57:45.487Z,11.85
2023-03-28T23:02:47.881Z,11.30
2023-03-28T23:07:50.612Z,13.57
2023-03-28T23:12:53.048Z,13.60
2023-03-28T23:17:55.813Z,10.43
2023-03-28T23:22:58.116Z,10.95
2023-03-28T23:28:00.431Z,9.95
2023-03-28T23:33:02.733Z,8.35
2023-03-28T23:38:05.006Z,9.45
2023-03-28T23:43:07.540Z,12.57
2023-03-28T23:48:09.951Z,8.63
2023-03-28T23:53:11.955Z,6.78
2023-03-28T23:58:14.285Z,6.47
